Aérodrome :
LOGIN :

S'inscrire | Disclaimer

   EN    FR    IT 

 










Légende :    VFR   VFR Marginal   IFR   IFR Intensif   IFR Très Intensif
Visi : 
Plafond : 
>= 8 km
>= 3000ft
5 à 8 km
1000 à 3000 ft
1500m à 5 km
500 à 1000 ft
800 à 1500m
200 à 500 ft
< 800m
< 200 ft
Symboles :   Orages  Brouillard  Fortes neiges  Fortes précipitations  Vent > 20 kt
SIGMETs :   Divers  Orages  Givrage  Turbulence  Onde Orograph.  Cendres Volcan.







- Altitude de l'aérodrome : 90 ft
- Code IATA : NTE
- Voir les cartes d'approche


LFRS - Nantes

DERNIER METAR :
  • 251530Z AUTO 06014KT 010V080 CAVOK 06/M06 Q1018 TEMPO 06015G25KT

METARs EXPIRÉS :
  • 251500Z AUTO 06016KT 9999 NSC 06/M06 Q1018 TEMPO 06015G25KT
  • 251430Z AUTO 06014KT 020V090 CAVOK 06/M07 Q1017 TEMPO 06015G25KT
  • 251400Z AUTO 06015KT 030V090 CAVOK 06/M07 Q1017 TEMPO 06015G25KT
  • 251330Z AUTO 05013KT 010V080 CAVOK 06/M06 Q1017 TEMPO 06015G25KT
  • 251300Z AUTO 05012KT 360V080 CAVOK 05/M07 Q1018 TEMPO 06015G25KT

TAF TAF LFRS
Valide du 25 à 12h jusqu'au 26 à 18h UTC


251100Z 2512/2618 06015KT CAVOK
TEMPO 2512/2609 06015G25KT
TEMPO 2609/2618 06020G30KT
ATIS : +33 2 40 05 12 74
Pas de NOTAMs connus pour ce terrain.



MET'MAP, la Météo Aéronautique d'un coup d'oeil ! - Copyright ORBIFLY Décembre 2007 - Disclaimer

ORBIFLY MET'MAP TEAM :

Programmation & Développement : Alexandra Zaïnal
Conception & Développement : Baudouin d'Aumeries
Co-Programmation & Développement : Marc-Olivier Méhu
Soutien technique & logistique : Manuel Goepfert

Contact : metmap@orbifly.com




SOURCES & CREDITS :

   NOAA